createdAt,value
2017-08-16T00:00:01.236Z,17.6
2017-08-16T00:05:01.681Z,17.6
2017-08-16T00:10:01.497Z,17.5
2017-08-16T00:15:02.162Z,17.5
2017-08-16T00:20:04.184Z,17.4
2017-08-16T00:25:01.137Z,17.4
2017-08-16T00:30:01.982Z,17.4
2017-08-16T00:35:01.194Z,17.4
2017-08-16T00:40:02.094Z,17.3
2017-08-16T00:45:01.762Z,17.3
2017-08-16T00:50:01.487Z,17.3
2017-08-16T00:55:02.124Z,17.2
2017-08-16T01:00:01.955Z,17.2
2017-08-16T01:05:01.536Z,17.2
2017-08-16T01:10:01.470Z,17.1
2017-08-16T01:15:01.235Z,17.1
2017-08-16T01:20:02.065Z,17.1
2017-08-16T01:25:01.610Z,17.1
2017-08-16T01:30:01.301Z,17
2017-08-16T01:35:01.553Z,17
2017-08-16T01:40:01.387Z,17
2017-08-16T01:45:01.549Z,17
2017-08-16T01:50:01.307Z,17
2017-08-16T01:55:01.334Z,17
2017-08-16T02:00:01.597Z,17
2017-08-16T02:05:01.547Z,17
2017-08-16T02:10:01.889Z,17
2017-08-16T02:15:01.193Z,17
2017-08-16T02:20:01.230Z,17.1
2017-08-16T02:25:01.537Z,17.1
2017-08-16T02:30:01.398Z,17.1
2017-08-16T02:35:01.369Z,17.1
2017-08-16T02:40:01.827Z,17.1
2017-08-16T02:45:01.948Z,17
2017-08-16T02:50:01.835Z,17
2017-08-16T02:55:02.080Z,17
2017-08-16T03:00:01.244Z,17
2017-08-16T03:05:01.622Z,17
2017-08-16T03:10:01.406Z,17
2017-08-16T03:15:01.675Z,16.9
2017-08-16T03:20:01.490Z,16.9
2017-08-16T03:25:02.164Z,16.9
2017-08-16T03:30:01.256Z,16.9
2017-08-16T03:35:01.612Z,16.9
2017-08-16T03:40:01.624Z,16.8
2017-08-16T03:45:01.276Z,16.8
2017-08-16T03:50:01.182Z,16.8
2017-08-16T03:55:01.899Z,16.8
2017-08-16T04:00:02.054Z,16.7
2017-08-16T04:05:01.668Z,16.7
2017-08-16T04:10:01.376Z,16.7
2017-08-16T04:15:01.807Z,16.7
2017-08-16T04:20:01.502Z,16.7
2017-08-16T04:25:02.041Z,16.7
2017-08-16T04:30:02.072Z,16.6
2017-08-16T04:35:02.128Z,16.6
2017-08-16T04:40:01.811Z,16.7
2017-08-16T04:45:01.445Z,16.7
2017-08-16T04:50:01.472Z,16.8
2017-08-16T04:55:01.759Z,16.7
2017-08-16T05:00:02.831Z,16.8
2017-08-16T05:05:01.801Z,16.7
2017-08-16T05:10:01.598Z,16.8
2017-08-16T05:15:01.226Z,16.8
2017-08-16T05:20:01.173Z,16.8
2017-08-16T05:25:02.111Z,16.8
2017-08-16T05:30:01.261Z,16.8
2017-08-16T05:35:01.213Z,16.8
2017-08-16T05:40:02.096Z,16.8
2017-08-16T05:45:01.561Z,16.8
2017-08-16T05:50:01.499Z,16.8
2017-08-16T05:55:01.898Z,16.9
2017-08-16T06:00:01.986Z,16.8
2017-08-16T06:05:01.642Z,16.8
2017-08-16T06:10:01.904Z,16.8
2017-08-16T06:15:02.129Z,16.8
2017-08-16T06:20:01.824Z,16.8
2017-08-16T06:25:01.617Z,16.8
2017-08-16T06:30:01.601Z,16.8
2017-08-16T06:35:01.632Z,16.8
2017-08-16T06:40:01.398Z,16.8
2017-08-16T06:45:01.918Z,16.9
2017-08-16T06:50:01.980Z,16.9
2017-08-16T06:55:01.304Z,17
2017-08-16T07:00:01.313Z,16.9
2017-08-16T07:05:01.565Z,17
2017-08-16T07:10:01.673Z,17.1
2017-08-16T07:15:01.846Z,17.2
2017-08-16T07:20:01.537Z,17.4
2017-08-16T07:25:01.394Z,17.4
2017-08-16T07:30:01.444Z,17.6
2017-08-16T07:35:01.956Z,17.6
2017-08-16T07:40:01.705Z,17.6
2017-08-16T07:45:01.474Z,17.6
2017-08-16T07:50:01.538Z,17.8
2017-08-16T07:55:01.343Z,17.9
2017-08-16T08:00:01.288Z,18
2017-08-16T08:05:01.427Z,18
2017-08-16T08:10:01.320Z,18
2017-08-16T08:15:01.854Z,18.1
2017-08-16T08:20:01.662Z,18.2
2017-08-16T08:25:01.824Z,18.2
2017-08-16T08:30:01.824Z,18.4
2017-08-16T08:35:02.146Z,18.6
2017-08-16T08:40:01.269Z,18.6
2017-08-16T08:45:01.384Z,18.6
2017-08-16T08:50:01.415Z,18.8
2017-08-16T08:55:02.101Z,18.8
2017-08-16T09:00:01.656Z,18.8
2017-08-16T09:05:02.173Z,19.1
2017-08-16T09:10:01.958Z,19.2
2017-08-16T09:15:02.144Z,19.2
2017-08-16T09:20:01.709Z,19.2
2017-08-16T09:25:01.200Z,19.6
2017-08-16T09:30:01.548Z,19.8
2017-08-16T09:35:02.189Z,19.8
2017-08-16T09:40:02.867Z,19.8
2017-08-16T09:45:01.422Z,19.8
2017-08-16T09:50:01.802Z,20
2017-08-16T09:55:01.742Z,20.2
2017-08-16T10:00:02.114Z,20.2
2017-08-16T10:05:01.675Z,20.4
2017-08-16T10:10:01.546Z,20.4
2017-08-16T10:15:01.826Z,20.4
2017-08-16T10:20:01.696Z,20.6
2017-08-16T10:25:02.089Z,20.6
2017-08-16T10:30:01.365Z,20.8
2017-08-16T10:35:01.560Z,20.8
2017-08-16T10:40:01.300Z,20.8
2017-08-16T10:45:01.910Z,21.2
2017-08-16T10:50:01.888Z,21.2
2017-08-16T10:55:01.933Z,21.5
2017-08-16T11:00:01.212Z,21.5
2017-08-16T11:05:01.284Z,21.7
2017-08-16T11:10:02.148Z,21.7
2017-08-16T11:15:01.474Z,21.7
2017-08-16T11:20:01.318Z,21.7
2017-08-16T11:25:02.054Z,21.7
2017-08-16T11:30:01.346Z,21.7
2017-08-16T11:35:01.618Z,21.4
2017-08-16T11:40:01.351Z,21.4
2017-08-16T11:45:01.392Z,21.4
2017-08-16T11:50:01.522Z,21.3
2017-08-16T11:55:01.561Z,21.3
2017-08-16T12:00:01.886Z,21.3
2017-08-16T12:05:01.836Z,21.3
2017-08-16T12:10:01.732Z,21.3
2017-08-16T12:15:01.248Z,21.3
2017-08-16T12:20:01.963Z,21.3
2017-08-16T12:25:01.886Z,21.3
2017-08-16T12:30:01.355Z,21.5
2017-08-16T12:35:01.403Z,21.5
2017-08-16T12:40:01.400Z,21.4
2017-08-16T12:45:01.532Z,21.3
2017-08-16T12:50:01.558Z,21.3
2017-08-16T12:55:02.088Z,21.3
2017-08-16T13:00:01.326Z,21.3
2017-08-16T13:05:01.476Z,21.3
2017-08-16T13:10:01.829Z,21.3
2017-08-16T13:15:01.673Z,21.2
2017-08-16T13:20:01.435Z,21.2
2017-08-16T13:25:01.863Z,21.2
2017-08-16T13:30:01.450Z,21.2
2017-08-16T13:35:01.643Z,21.5
2017-08-16T13:40:01.534Z,21.5
2017-08-16T13:45:02.032Z,21.5
2017-08-16T13:50:01.990Z,21.5
2017-08-16T13:55:01.287Z,21.5
2017-08-16T14:00:01.682Z,21.4
2017-08-16T14:05:01.526Z,21.4
2017-08-16T14:10:01.354Z,21.4
2017-08-16T14:15:01.239Z,21.3
2017-08-16T14:20:01.943Z,21.3
2017-08-16T14:25:01.339Z,21.3
2017-08-16T14:30:01.305Z,21.3
2017-08-16T14:35:02.149Z,21.3
2017-08-16T14:40:01.867Z,21.3
2017-08-16T14:45:02.186Z,21.3
2017-08-16T14:50:01.140Z,21.3
2017-08-16T14:55:01.999Z,21.6
2017-08-16T15:00:02.069Z,21.6
2017-08-16T15:05:01.739Z,21.6
2017-08-16T15:10:01.600Z,21.6
2017-08-16T15:15:01.372Z,21.6
2017-08-16T15:20:02.151Z,21.7
2017-08-16T15:25:01.790Z,21.8
2017-08-16T15:30:01.857Z,21.8
2017-08-16T15:35:01.810Z,21.8
2017-08-16T15:40:01.728Z,21.8
2017-08-16T15:45:01.838Z,21.8
2017-08-16T15:50:01.771Z,21.8
2017-08-16T15:55:01.617Z,21.8
2017-08-16T16:00:01.824Z,21.8
2017-08-16T16:05:01.879Z,21.5
2017-08-16T16:10:01.723Z,21.5
2017-08-16T16:15:01.694Z,21.3
2017-08-16T16:20:01.628Z,21.2
2017-08-16T16:25:02.175Z,21.1
2017-08-16T16:30:01.300Z,21
2017-08-16T16:35:01.318Z,20.9
2017-08-16T16:40:01.331Z,20.9
2017-08-16T16:45:01.403Z,20.7
2017-08-16T16:50:01.523Z,20.7
2017-08-16T16:55:01.451Z,20.7
2017-08-16T17:00:01.572Z,20.4
2017-08-16T17:05:01.272Z,20.4
2017-08-16T17:10:01.534Z,20.4
2017-08-16T17:15:02.014Z,20.1
2017-08-16T17:20:01.872Z,20
2017-08-16T17:25:02.112Z,20
2017-08-16T17:30:01.237Z,20
2017-08-16T17:35:01.418Z,19.8
2017-08-16T17:40:01.426Z,19.6
2017-08-16T17:45:01.442Z,19.6
2017-08-16T17:50:01.487Z,19.6
2017-08-16T17:55:01.253Z,19.5
2017-08-16T18:00:01.450Z,19.5
2017-08-16T18:05:01.718Z,19.3
2017-08-16T18:10:01.512Z,19.3
2017-08-16T18:15:02.086Z,19.3
2017-08-16T18:20:01.834Z,19.2
2017-08-16T18:25:01.324Z,19.2
2017-08-16T18:30:01.576Z,19
2017-08-16T18:35:01.861Z,18.9
2017-08-16T18:40:01.744Z,18.8
2017-08-16T18:45:01.691Z,18.8
2017-08-16T18:50:01.920Z,18.6
2017-08-16T18:55:01.179Z,18.5
2017-08-16T19:00:02.145Z,18.4
2017-08-16T19:05:01.898Z,18.4
2017-08-16T19:10:01.773Z,18.4
2017-08-16T19:15:01.956Z,18.1
2017-08-16T19:20:01.286Z,17.9
2017-08-16T19:25:01.591Z,17.8
2017-08-16T19:30:01.788Z,17.7
2017-08-16T19:35:01.239Z,17.6
2017-08-16T19:40:02.017Z,17.6
2017-08-16T19:45:01.979Z,17.3
2017-08-16T19:50:01.671Z,17.2
2017-08-16T19:55:01.527Z,17.1
2017-08-16T20:00:01.707Z,17
2017-08-16T20:05:01.406Z,16.9
2017-08-16T20:10:01.244Z,16.8
2017-08-16T20:15:01.788Z,16.8
2017-08-16T20:20:01.700Z,16.7
2017-08-16T20:25:01.458Z,16.6
2017-08-16T20:30:01.536Z,16.5
2017-08-16T20:35:01.536Z,16.5
2017-08-16T20:40:01.428Z,16.4
2017-08-16T20:45:01.493Z,16.4
2017-08-16T20:50:01.226Z,16.4
2017-08-16T20:55:01.645Z,16.2
2017-08-16T21:00:01.792Z,16.2
2017-08-16T21:05:01.402Z,16.2
2017-08-16T21:10:01.273Z,16
2017-08-16T21:15:01.792Z,15.8
2017-08-16T21:20:01.894Z,15.8
2017-08-16T21:25:01.729Z,15.7
2017-08-16T21:30:01.831Z,15.6
2017-08-16T21:35:01.410Z,15.6
2017-08-16T21:40:01.302Z,15.4
2017-08-16T21:45:01.911Z,15.3
2017-08-16T21:50:01.612Z,15.3
2017-08-16T21:55:01.945Z,15.3
2017-08-16T22:00:02.064Z,15
2017-08-16T22:05:02.064Z,15
2017-08-16T22:10:01.788Z,15
2017-08-16T22:15:01.709Z,15
2017-08-16T22:20:01.646Z,15
2017-08-16T22:25:01.659Z,15
2017-08-16T22:30:01.453Z,15
2017-08-16T22:35:01.716Z,15
2017-08-16T22:40:01.583Z,15
2017-08-16T22:45:01.419Z,15
2017-08-16T22:50:01.172Z,15
2017-08-16T22:55:01.796Z,15
2017-08-16T23:00:01.571Z,14.9
2017-08-16T23:05:01.887Z,14.7
2017-08-16T23:10:01.631Z,14.6
2017-08-16T23:15:01.265Z,14.6
2017-08-16T23:20:01.993Z,14.5
2017-08-16T23:25:01.623Z,14.4
2017-08-16T23:30:01.429Z,14.4
2017-08-16T23:35:02.068Z,14.3
2017-08-16T23:40:01.741Z,14.2
2017-08-16T23:45:01.816Z,14.1
2017-08-16T23:50:01.589Z,14.1
2017-08-16T23:55:01.565Z,14
